Time;durP1;ratioP1;P1;durP2;ratioP2;P2;SDS_P1;SDS_P2;PMS_P1;PMS_P2;Temp;Humidity;BMP_temperature;BMP_pressure;BME280_temperature;BME280_humidity;BME280_pressure;Samples;Min_cycle;Max_cycle;Signal;HPM_P1;HPM_P2
2023/05/06 00:09:47;;;;;;;58.25;35.03;;;7.50;99.90;;;;;;25971770;22;20434;-50
2023/05/06 00:19:51;;;;;;;54.67;32.42;;;7.60;99.90;;;;;;25971257;22;19999;-52
2023/05/06 00:29:52;;;;;;;45.35;29.67;;;7.90;99.90;;;;;;25970640;22;20004;-53
2023/05/06 00:39:54;;;;;;;48.17;30.90;;;8.00;99.90;;;;;;25971583;22;20007;-52
2023/05/06 00:49:55;;;;;;;54.65;34.55;;;7.90;99.90;;;;;;25942932;22;20081;-59
2023/05/06 00:59:57;;;;;;;50.75;32.15;;;7.90;99.90;;;;;;25969590;22;20003;-53
2023/05/06 01:10:32;;;;;;;47.92;32.65;;;7.90;99.90;;;;;;25942472;22;20378;-51
2023/05/06 01:20:37;;;;;;;50.85;31.02;;;8.30;99.90;;;;;;26011501;22;20057;-59
2023/05/06 01:30:50;;;;;;;44.85;30.30;;;8.60;99.90;;;;;;25967890;22;20012;-59
2023/05/06 01:40:55;;;;;;;47.97;31.92;;;8.80;99.90;;;;;;26010443;22;20014;-59
2023/05/06 01:50:57;;;;;;;48.95;32.97;;;8.90;99.90;;;;;;25967363;22;20012;-52
2023/05/06 02:00:59;;;;;;;56.15;36.00;;;8.70;99.90;;;;;;25966997;22;20000;-59
2023/05/06 02:11:00;;;;;;;48.42;32.88;;;8.70;99.90;;;;;;25966304;22;20007;-60
2023/05/06 02:21:03;;;;;;;43.75;29.25;;;8.80;99.90;;;;;;25939255;22;20000;-52
2023/05/06 02:31:05;;;;;;;39.78;27.52;;;8.90;99.90;;;;;;25939053;22;20000;-59
2023/05/06 02:41:06;;;;;;;39.20;24.77;;;9.00;99.90;;;;;;25965725;22;20004;-59
2023/05/06 02:51:08;;;;;;;51.13;33.17;;;9.10;99.90;;;;;;25965226;22;20020;-59
2023/05/06 03:01:10;;;;;;;51.30;31.05;;;8.90;99.90;;;;;;25964881;22;20004;-50
2023/05/06 03:11:12;;;;;;;41.08;27.63;;;9.20;99.90;;;;;;25964586;22;20000;-52
2023/05/06 03:21:14;;;;;;;35.17;23.77;;;9.10;99.90;;;;;;25937433;22;20439;-54
2023/05/06 03:31:17;;;;;;;28.70;20.88;;;9.20;99.90;;;;;;25937738;22;20011;-59
2023/05/06 03:41:20;;;;;;;31.60;21.77;;;9.00;99.90;;;;;;25937221;22;20034;-60
2023/05/06 03:51:22;;;;;;;25.35;18.08;;;8.80;99.90;;;;;;25936456;22;20385;-49
2023/05/06 04:01:24;;;;;;;27.75;19.20;;;9.10;99.90;;;;;;25963892;22;20007;-59
2023/05/06 04:11:25;;;;;;;35.50;20.50;;;9.00;99.90;;;;;;25963299;22;20003;-60
2023/05/06 04:21:28;;;;;;;31.67;20.90;;;8.90;99.90;;;;;;25936471;22;20443;-52
2023/05/06 04:31:36;;;;;;;28.75;19.65;;;8.90;99.90;;;;;;25980688;22;20003;-59
2023/05/06 04:41:41;;;;;;;29.33;20.88;;;9.00;99.90;;;;;;25972143;22;20429;-52
2023/05/06 04:51:45;;;;;;;29.00;20.30;;;9.20;99.90;;;;;;25968450;22;20015;-50
2023/05/06 05:01:48;;;;;;;31.58;21.55;;;9.70;99.90;;;;;;25942525;22;20058;-59
2023/05/06 05:11:50;;;;;;;20.25;14.63;;;10.10;99.90;;;;;;25941889;22;20427;-58
2023/05/06 05:21:53;;;;;;;16.33;12.60;;;10.50;99.90;;;;;;25941817;22;20339;-49
2023/05/06 05:31:57;;;;;;;13.63;9.90;;;10.80;99.90;;;;;;25941095;22;20008;-52
2023/05/06 05:41:58;;;;;;;11.57;9.05;;;11.00;99.90;;;;;;25968007;22;20004;-49
2023/05/06 05:52:01;;;;;;;15.10;8.38;;;11.40;99.90;;;;;;25940162;22;20504;-50
2023/05/06 06:02:05;;;;;;;9.85;7.60;;;11.90;99.90;;;;;;25939767;22;20327;-51
2023/05/06 06:12:07;;;;;;;9.45;6.32;;;12.10;99.90;;;;;;25938503;22;20331;-60
2023/05/06 06:22:13;;;;;;;9.15;5.68;;;12.20;99.90;;;;;;25981392;22;20054;-49
2023/05/06 06:32:15;;;;;;;9.48;7.70;;;13.20;99.90;;;;;;25936634;22;20435;-62
2023/05/06 06:42:17;;;;;;;11.30;10.02;;;15.60;99.90;;;;;;25965341;22;20004;-57
2023/05/06 06:52:35;;;;;;;8.63;7.83;;;18.10;99.90;;;;;;26007164;22;20007;-60
2023/05/06 07:02:37;;;;;;;8.45;7.55;;;19.90;99.90;;;;;;25964775;22;20011;-53
2023/05/06 07:12:38;;;;;;;8.15;7.32;;;20.20;99.90;;;;;;25964550;22;20008;-62
2023/05/06 07:22:40;;;;;;;8.65;7.85;;;19.70;99.90;;;;;;25963419;22;20008;-53
2023/05/06 07:32:42;;;;;;;9.32;7.63;;;20.20;99.90;;;;;;25963331;22;20007;-51
2023/05/06 07:42:43;;;;;;;6.35;5.75;;;20.00;99.90;;;;;;25936347;22;20015;-62
2023/05/06 07:52:45;;;;;;;7.65;6.88;;;20.30;99.90;;;;;;26005508;22;20053;-62
2023/05/06 08:02:47;;;;;;;7.32;5.40;;;20.50;99.90;;;;;;25963235;22;20003;-62
2023/05/06 08:12:49;;;;;;;4.82;4.43;;;20.90;99.90;;;;;;25971125;22;20007;-52
2023/05/06 08:22:51;;;;;;;5.10;4.35;;;21.10;99.90;;;;;;25970444;22;20012;-62
2023/05/06 08:32:52;;;;;;;6.13;5.53;;;21.10;99.90;;;;;;25970078;22;20012;-61
2023/05/06 08:42:56;;;;;;;6.55;5.95;;;21.30;99.90;;;;;;25971687;22;20018;-61
2023/05/06 08:53:00;;;;;;;7.95;5.55;;;21.50;99.90;;;;;;25969577;22;20019;-51
2023/05/06 09:03:02;;;;;;;8.88;7.53;;;21.50;99.90;;;;;;25968197;22;20284;-62
2023/05/06 09:13:04;;;;;;;12.02;10.60;;;22.10;99.90;;;;;;25969267;22;20218;-62
2023/05/06 09:23:08;;;;;;;11.68;10.57;;;21.90;99.90;;;;;;25968322;22;20007;-62
2023/05/06 09:33:10;;;;;;;12.63;11.35;;;20.60;99.90;;;;;;25968023;22;20057;-62
2023/05/06 09:43:14;;;;;;;14.77;13.27;;;20.90;99.90;;;;;;25967972;22;20008;-61
2023/05/06 09:53:17;;;;;;;12.48;11.15;;;20.10;99.90;;;;;;25915276;22;20283;-63
2023/05/06 10:03:20;;;;;;;14.30;12.70;;;20.10;99.90;;;;;;25966011;22;20145;-62
2023/05/06 10:13:23;;;;;;;13.65;12.05;;;21.40;99.90;;;;;;25966185;22;20010;-60
2023/05/06 10:23:33;;;;;;;14.57;13.07;;;22.40;99.90;;;;;;25966388;22;20010;-61
2023/05/06 10:33:35;;;;;;;15.75;14.15;;;21.90;99.90;;;;;;26007482;22;20011;-61
2023/05/06 10:43:41;;;;;;;17.95;14.70;;;21.40;99.90;;;;;;25965427;22;20018;-61
2023/05/06 10:54:03;;;;;;;19.80;17.63;;;21.50;99.90;;;;;;25965282;22;20027;-61
2023/05/06 11:04:07;;;;;;;20.30;17.90;;;20.20;99.90;;;;;;25979604;22;20152;-61
2023/05/06 11:14:12;;;;;;;19.25;16.77;;;20.10;99.90;;;;;;25964108;22;20007;-60
2023/05/06 11:24:20;;;;;;;15.73;14.13;;;20.70;99.90;;;;;;25965595;22;20011;-48
2023/05/06 11:34:30;;;;;;;20.45;16.27;;;22.60;99.90;;;;;;26006457;22;20004;-60
2023/05/06 11:44:34;;;;;;;19.83;17.73;;;23.30;99.90;;;;;;26001985;22;20015;-61
2023/05/06 11:54:41;;;;;;;19.50;17.40;;;24.20;99.90;;;;;;25971855;22;20008;-60
2023/05/06 12:04:45;;;;;;;;;;;23.90;99.90;;;;;;25970961;22;20037;-49
2023/05/06 12:14:48;;;;;;;24.45;20.48;;;24.60;99.90;;;;;;25971280;22;19907;-63
2023/05/06 12:24:49;;;;;;;21.70;19.25;;;24.00;99.90;;;;;;25971478;22;20439;-61
2023/05/06 12:34:51;;;;;;;23.60;19.45;;;23.80;99.90;;;;;;25970708;22;20007;-61
2023/05/06 12:44:53;;;;;;;23.58;21.13;;;24.00;99.90;;;;;;25970210;22;20516;-61
2023/05/06 12:54:56;;;;;;;21.42;17.73;;;24.60;99.90;;;;;;25969725;22;20023;-61
2023/05/06 13:04:57;;;;;;;19.58;17.58;;;24.80;99.90;;;;;;25941500;22;20008;-60
2023/05/06 13:14:59;;;;;;;21.27;19.00;;;23.10;98.00;;;;;;25969468;22;20504;-60
2023/05/06 13:25:02;;;;;;;25.08;20.77;;;20.70;99.90;;;;;;25969224;22;20003;-60
2023/05/06 13:35:04;;;;;;;24.50;21.00;;;19.40;99.90;;;;;;25968391;22;20357;-59
2023/05/06 13:45:07;;;;;;;21.90;19.52;;;19.00;99.90;;;;;;25967903;22;20385;-60
2023/05/06 13:55:09;;;;;;;21.98;19.52;;;18.60;99.90;;;;;;25967661;22;20000;-51
2023/05/06 14:05:11;;;;;;;24.52;19.55;;;17.90;99.90;;;;;;25965692;22;20026;-60
2023/05/06 14:15:13;;;;;;;23.35;20.85;;;17.40;99.90;;;;;;25966114;22;20003;-60
2023/05/06 14:25:15;;;;;;;26.65;22.67;;;17.00;99.90;;;;;;25966551;22;20015;-59
2023/05/06 14:35:17;;;;;;;24.90;21.40;;;16.60;99.90;;;;;;25965959;22;20008;-59
2023/05/06 14:45:19;;;;;;;25.23;21.08;;;16.40;99.90;;;;;;25966686;22;20339;-60
2023/05/06 14:55:21;;;;;;;25.08;21.88;;;16.50;99.90;;;;;;25937997;22;20008;-60
2023/05/06 15:05:23;;;;;;;24.40;19.80;;;17.00;99.90;;;;;;25964258;22;20508;-60
2023/05/06 15:15:24;;;;;;;24.45;20.10;;;17.10;99.90;;;;;;25964419;22;20375;-52
2023/05/06 15:25:26;;;;;;;24.88;20.52;;;17.40;99.90;;;;;;25964525;22;20061;-60
2023/05/06 15:35:29;;;;;;;24.98;22.23;;;17.50;99.90;;;;;;25963739;22;20012;-60
2023/05/06 15:45:31;;;;;;;23.95;20.27;;;17.40;99.90;;;;;;25963867;22;20109;-60
2023/05/06 15:55:33;;;;;;;24.50;20.33;;;17.30;99.90;;;;;;25963910;22;20004;-60
2023/05/06 16:05:34;;;;;;;21.92;19.35;;;17.20;99.90;;;;;;25962840;22;20000;-51
2023/05/06 16:15:36;;;;;;;24.35;21.15;;;16.90;99.90;;;;;;25963324;22;20000;-50
2023/05/06 16:25:38;;;;;;;21.10;18.88;;;16.70;99.90;;;;;;25964435;22;20039;-60
2023/05/06 16:35:39;;;;;;;22.60;18.67;;;16.70;99.90;;;;;;25969894;22;20061;-58
2023/05/06 16:45:44;;;;;;;22.77;19.25;;;16.60;99.90;;;;;;25997277;22;20024;-51
2023/05/06 16:55:47;;;;;;;24.02;20.42;;;16.40;99.90;;;;;;25970004;22;20062;-54
2023/05/06 17:05:49;;;;;;;23.17;18.95;;;16.00;99.90;;;;;;25969856;22;20008;-51
2023/05/06 17:15:51;;;;;;;22.42;19.38;;;15.70;99.90;;;;;;25969319;22;20065;-52
2023/05/06 17:25:55;;;;;;;26.35;20.65;;;15.30;99.90;;;;;;25968595;22;20057;-59
2023/05/06 17:35:57;;;;;;;26.05;21.30;;;14.80;99.90;;;;;;25968097;22;20004;-52
2023/05/06 17:45:59;;;;;;;24.70;21.30;;;14.50;99.90;;;;;;25967149;22;20012;-49
2023/05/06 17:56:00;;;;;;;28.05;20.50;;;14.20;99.90;;;;;;25967801;22;20004;-52
2023/05/06 18:06:03;;;;;;;31.52;24.50;;;13.90;99.90;;;;;;25940248;22;20081;-52
2023/05/06 18:16:05;;;;;;;26.48;21.10;;;13.40;99.90;;;;;;25967331;22;20439;-58
2023/05/06 18:26:10;;;;;;;28.15;21.65;;;12.70;99.90;;;;;;25966459;22;20003;-59
2023/05/06 18:36:12;;;;;;;25.05;19.33;;;12.00;99.90;;;;;;25964702;22;20006;-52
2023/05/06 18:46:14;;;;;;;25.30;19.25;;;11.50;99.90;;;;;;25964827;22;20343;-51
2023/05/06 18:56:16;;;;;;;25.45;19.67;;;11.10;99.90;;;;;;25962154;22;20312;-60
2023/05/06 19:06:17;;;;;;;27.55;20.50;;;10.60;99.90;;;;;;25960542;22;20011;-52
2023/05/06 19:16:19;;;;;;;35.60;24.60;;;10.60;99.90;;;;;;25936330;22;20399;-52
2023/05/06 19:26:21;;;;;;;35.78;25.90;;;10.40;99.90;;;;;;25964428;22;20012;-52
2023/05/06 19:36:22;;;;;;;43.85;28.90;;;10.10;99.90;;;;;;25964384;22;20354;-59
2023/05/06 19:46:24;;;;;;;44.55;30.40;;;10.00;99.90;;;;;;25963819;22;20016;-53
2023/05/06 19:56:26;;;;;;;42.60;30.80;;;9.90;99.90;;;;;;25963497;22;20038;-51
2023/05/06 20:06:29;;;;;;;43.47;31.45;;;9.80;99.90;;;;;;25970813;22;20007;-59
2023/05/06 20:16:31;;;;;;;42.83;31.40;;;9.70;99.90;;;;;;25971463;22;20003;-58
2023/05/06 20:26:33;;;;;;;51.65;34.92;;;9.80;99.90;;;;;;25971179;22;20007;-51
2023/05/06 20:36:35;;;;;;;51.90;35.90;;;9.80;99.90;;;;;;25970945;22;20377;-52
2023/05/06 20:46:37;;;;;;;57.28;38.58;;;9.80;99.90;;;;;;25969680;22;20015;-52
2023/05/06 20:56:38;;;;;;;58.65;40.15;;;9.60;99.90;;;;;;25969538;22;20014;-52
2023/05/06 21:06:40;;;;;;;68.57;44.85;;;9.60;99.90;;;;;;25969255;22;20011;-50
2023/05/06 21:16:42;;;;;;;71.75;46.33;;;9.50;99.90;;;;;;25968336;22;20030;-50
2023/05/06 21:26:43;;;;;;;64.15;43.70;;;9.50;99.90;;;;;;25968732;22;20102;-52
2023/05/06 21:36:45;;;;;;;70.05;46.20;;;9.40;99.90;;;;;;25969895;22;19999;-52
2023/05/06 21:46:47;;;;;;;78.38;50.35;;;9.40;99.90;;;;;;25967848;22;20011;-59
2023/05/06 21:56:48;;;;;;;78.53;51.90;;;9.50;99.90;;;;;;25967968;22;20004;-58
2023/05/06 22:06:50;;;;;;;74.68;49.00;;;9.60;99.90;;;;;;25967302;22;20065;-51
2023/05/06 22:16:52;;;;;;;77.93;49.53;;;9.90;99.90;;;;;;25966508;22;20077;-58
2023/05/06 22:26:54;;;;;;;73.90;47.75;;;10.10;99.90;;;;;;25964121;22;20008;-51
2023/05/06 22:36:56;;;;;;;76.22;48.60;;;10.10;99.90;;;;;;25965883;22;20026;-52
2023/05/06 22:46:58;;;;;;;81.05;51.70;;;9.90;99.90;;;;;;25965504;22;20019;-50
2023/05/06 22:57:00;;;;;;;74.18;46.95;;;9.60;99.90;;;;;;25965344;22;20439;-58
2023/05/06 23:07:01;;;;;;;83.68;49.00;;;9.60;99.90;;;;;;25937836;22;20008;-48
2023/05/06 23:17:03;;;;;;;87.57;53.25;;;9.30;99.90;;;;;;25937327;22;20070;-58
2023/05/06 23:27:04;;;;;;;83.68;50.20;;;9.20;99.90;;;;;;25964747;22;20098;-50
2023/05/06 23:37:06;;;;;;;97.25;55.58;;;9.10;99.90;;;;;;25970156;22;20003;-52
2023/05/06 23:47:07;;;;;;;97.28;55.00;;;9.10;99.90;;;;;;25978894;22;20020;-51
2023/05/06 23:57:09;;;;;;;92.35;56.75;;;9.10;99.90;;;;;;25978179;22;20007;-48
